sensor_id;sensor_type;location;lat;lon;timestamp;P1;durP1;ratioP1;P2;durP2;ratioP2
73219;SDS011;61434;43.538;-5.688;2023-02-28T00:00:22;14.60;;;4.25;;
73219;SDS011;61434;43.538;-5.688;2023-02-28T00:02:48;11.23;;;4.07;;
73219;SDS011;61434;43.538;-5.688;2023-02-28T00:05:15;10.80;;;4.13;;
73219;SDS011;61434;43.538;-5.688;2023-02-28T00:07:40;12.43;;;4.17;;
73219;SDS011;61434;43.538;-5.688;2023-02-28T00:10:07;8.98;;;3.60;;
73219;SDS011;61434;43.538;-5.688;2023-02-28T00:12:36;10.90;;;3.78;;
73219;SDS011;61434;43.538;-5.688;2023-02-28T00:15:02;12.43;;;4.05;;
73219;SDS011;61434;43.538;-5.688;2023-02-28T00:17:27;11.90;;;4.43;;
73219;SDS011;61434;43.538;-5.688;2023-02-28T00:19:52;11.25;;;3.55;;
73219;SDS011;61434;43.538;-5.688;2023-02-28T00:22:18;9.93;;;4.17;;
73219;SDS011;61434;43.538;-5.688;2023-02-28T00:24:44;11.77;;;3.83;;
73219;SDS011;61434;43.538;-5.688;2023-02-28T00:27:09;10.18;;;3.60;;
73219;SDS011;61434;43.538;-5.688;2023-02-28T00:29:35;10.10;;;3.33;;
73219;SDS011;61434;43.538;-5.688;2023-02-28T00:32:00;9.27;;;3.30;;
73219;SDS011;61434;43.538;-5.688;2023-02-28T00:34:25;12.47;;;4.03;;
73219;SDS011;61434;43.538;-5.688;2023-02-28T00:36:51;7.93;;;3.10;;
73219;SDS011;61434;43.538;-5.688;2023-02-28T00:39:16;12.27;;;3.60;;
73219;SDS011;61434;43.538;-5.688;2023-02-28T00:41:42;9.07;;;3.85;;
73219;SDS011;61434;43.538;-5.688;2023-02-28T00:44:07;13.57;;;4.40;;
73219;SDS011;61434;43.538;-5.688;2023-02-28T00:46:32;12.57;;;4.30;;
73219;SDS011;61434;43.538;-5.688;2023-02-28T00:48:58;14.20;;;4.80;;
73219;SDS011;61434;43.538;-5.688;2023-02-28T00:51:23;12.73;;;5.13;;
73219;SDS011;61434;43.538;-5.688;2023-02-28T00:53:48;9.07;;;4.60;;
73219;SDS011;61434;43.538;-5.688;2023-02-28T00:56:13;13.30;;;4.27;;
73219;SDS011;61434;43.538;-5.688;2023-02-28T00:58:39;11.70;;;3.70;;
73219;SDS011;61434;43.538;-5.688;2023-02-28T01:01:05;10.50;;;2.95;;
73219;SDS011;61434;43.538;-5.688;2023-02-28T01:03:30;8.37;;;3.00;;
73219;SDS011;61434;43.538;-5.688;2023-02-28T01:05:55;6.80;;;2.70;;
73219;SDS011;61434;43.538;-5.688;2023-02-28T01:08:21;8.38;;;2.85;;
73219;SDS011;61434;43.538;-5.688;2023-02-28T01:10:46;10.47;;;2.87;;
73219;SDS011;61434;43.538;-5.688;2023-02-28T01:13:12;10.23;;;2.83;;
73219;SDS011;61434;43.538;-5.688;2023-02-28T01:15:39;11.93;;;3.27;;
73219;SDS011;61434;43.538;-5.688;2023-02-28T01:18:05;7.30;;;3.03;;
73219;SDS011;61434;43.538;-5.688;2023-02-28T01:20:31;8.80;;;3.00;;
73219;SDS011;61434;43.538;-5.688;2023-02-28T01:22:56;9.00;;;2.97;;
73219;SDS011;61434;43.538;-5.688;2023-02-28T01:25:21;13.03;;;3.90;;
73219;SDS011;61434;43.538;-5.688;2023-02-28T01:27:46;11.70;;;6.23;;
73219;SDS011;61434;43.538;-5.688;2023-02-28T01:30:12;12.43;;;6.40;;
73219;SDS011;61434;43.538;-5.688;2023-02-28T01:32:37;11.75;;;6.65;;
73219;SDS011;61434;43.538;-5.688;2023-02-28T01:35:02;13.10;;;7.03;;
73219;SDS011;61434;43.538;-5.688;2023-02-28T01:37:28;12.00;;;6.30;;
73219;SDS011;61434;43.538;-5.688;2023-02-28T01:39:53;11.87;;;6.30;;
73219;SDS011;61434;43.538;-5.688;2023-02-28T01:42:18;10.77;;;5.50;;
73219;SDS011;61434;43.538;-5.688;2023-02-28T01:47:38;13.35;;;4.22;;
73219;SDS011;61434;43.538;-5.688;2023-02-28T01:50:07;11.50;;;3.53;;
73219;SDS011;61434;43.538;-5.688;2023-02-28T01:52:34;11.10;;;4.10;;
73219;SDS011;61434;43.538;-5.688;2023-02-28T01:55:01;7.07;;;3.30;;
73219;SDS011;61434;43.538;-5.688;2023-02-28T02:00:16;11.15;;;4.47;;
73219;SDS011;61434;43.538;-5.688;2023-02-28T02:02:43;9.43;;;4.00;;
73219;SDS011;61434;43.538;-5.688;2023-02-28T02:05:12;12.02;;;3.40;;
73219;SDS011;61434;43.538;-5.688;2023-02-28T02:07:39;9.23;;;3.77;;
73219;SDS011;61434;43.538;-5.688;2023-02-28T02:10:15;12.95;;;3.75;;
73219;SDS011;61434;43.538;-5.688;2023-02-28T02:17:44;12.57;;;3.73;;
73219;SDS011;61434;43.538;-5.688;2023-02-28T02:35:16;10.50;;;4.10;;
73219;SDS011;61434;43.538;-5.688;2023-02-28T02:40:24;14.67;;;3.73;;
73219;SDS011;61434;43.538;-5.688;2023-02-28T02:47:50;11.27;;;3.65;;
73219;SDS011;61434;43.538;-5.688;2023-02-28T02:50:17;10.90;;;3.97;;
73219;SDS011;61434;43.538;-5.688;2023-02-28T02:52:46;11.82;;;4.03;;
73219;SDS011;61434;43.538;-5.688;2023-02-28T02:55:15;9.55;;;3.05;;
73219;SDS011;61434;43.538;-5.688;2023-02-28T02:57:46;10.43;;;3.95;;
73219;SDS011;61434;43.538;-5.688;2023-02-28T03:00:12;10.63;;;3.97;;
73219;SDS011;61434;43.538;-5.688;2023-02-28T03:02:38;13.13;;;4.23;;
73219;SDS011;61434;43.538;-5.688;2023-02-28T03:05:07;12.60;;;4.90;;
73219;SDS011;61434;43.538;-5.688;2023-02-28T03:07:33;13.15;;;4.75;;
73219;SDS011;61434;43.538;-5.688;2023-02-28T03:09:58;12.90;;;4.67;;
73219;SDS011;61434;43.538;-5.688;2023-02-28T03:12:27;17.60;;;5.70;;
73219;SDS011;61434;43.538;-5.688;2023-02-28T03:27:35;16.07;;;6.13;;
73219;SDS011;61434;43.538;-5.688;2023-02-28T03:30:06;18.02;;;5.80;;
73219;SDS011;61434;43.538;-5.688;2023-02-28T03:35:21;15.73;;;6.05;;
73219;SDS011;61434;43.538;-5.688;2023-02-28T03:37:50;20.27;;;6.80;;
73219;SDS011;61434;43.538;-5.688;2023-02-28T03:40:19;13.13;;;4.87;;
73219;SDS011;61434;43.538;-5.688;2023-02-28T03:42:47;16.77;;;5.55;;
73219;SDS011;61434;43.538;-5.688;2023-02-28T03:45:21;15.70;;;5.75;;
73219;SDS011;61434;43.538;-5.688;2023-02-28T03:47:53;13.02;;;5.38;;
73219;SDS011;61434;43.538;-5.688;2023-02-28T03:52:46;18.67;;;6.30;;
73219;SDS011;61434;43.538;-5.688;2023-02-28T03:55:12;17.00;;;6.13;;
73219;SDS011;61434;43.538;-5.688;2023-02-28T04:00:18;18.60;;;5.70;;
73219;SDS011;61434;43.538;-5.688;2023-02-28T04:02:44;16.63;;;6.68;;
73219;SDS011;61434;43.538;-5.688;2023-02-28T04:05:10;15.43;;;5.17;;
73219;SDS011;61434;43.538;-5.688;2023-02-28T04:07:36;17.88;;;5.40;;
73219;SDS011;61434;43.538;-5.688;2023-02-28T04:10:02;17.17;;;6.10;;
73219;SDS011;61434;43.538;-5.688;2023-02-28T04:12:28;15.10;;;5.70;;
73219;SDS011;61434;43.538;-5.688;2023-02-28T04:14:53;14.40;;;5.30;;
73219;SDS011;61434;43.538;-5.688;2023-02-28T04:17:18;13.57;;;5.40;;
73219;SDS011;61434;43.538;-5.688;2023-02-28T04:19:44;13.50;;;5.33;;
73219;SDS011;61434;43.538;-5.688;2023-02-28T04:22:09;14.50;;;5.20;;
73219;SDS011;61434;43.538;-5.688;2023-02-28T04:24:35;10.40;;;3.83;;
73219;SDS011;61434;43.538;-5.688;2023-02-28T04:27:00;12.63;;;5.17;;
73219;SDS011;61434;43.538;-5.688;2023-02-28T04:31:51;12.07;;;4.40;;
73219;SDS011;61434;43.538;-5.688;2023-02-28T04:34:23;12.30;;;4.05;;
73219;SDS011;61434;43.538;-5.688;2023-02-28T04:36:48;12.87;;;3.90;;
73219;SDS011;61434;43.538;-5.688;2023-02-28T04:39:15;12.85;;;4.60;;
73219;SDS011;61434;43.538;-5.688;2023-02-28T04:41:43;12.98;;;4.43;;
73219;SDS011;61434;43.538;-5.688;2023-02-28T04:44:08;12.47;;;4.07;;
73219;SDS011;61434;43.538;-5.688;2023-02-28T04:46:34;10.97;;;3.50;;
73219;SDS011;61434;43.538;-5.688;2023-02-28T04:48:59;12.70;;;3.40;;
73219;SDS011;61434;43.538;-5.688;2023-02-28T04:51:24;9.02;;;3.10;;
73219;SDS011;61434;43.538;-5.688;2023-02-28T04:53:50;10.63;;;3.90;;
73219;SDS011;61434;43.538;-5.688;2023-02-28T04:56:16;10.80;;;3.57;;
73219;SDS011;61434;43.538;-5.688;2023-02-28T04:58:42;13.10;;;4.00;;
73219;SDS011;61434;43.538;-5.688;2023-02-28T05:03:42;11.38;;;3.78;;
73219;SDS011;61434;43.538;-5.688;2023-02-28T05:06:08;8.32;;;3.20;;
73219;SDS011;61434;43.538;-5.688;2023-02-28T05:08:33;10.87;;;4.07;;
73219;SDS011;61434;43.538;-5.688;2023-02-28T05:10:59;11.95;;;3.90;;
73219;SDS011;61434;43.538;-5.688;2023-02-28T05:13:26;11.53;;;3.93;;
73219;SDS011;61434;43.538;-5.688;2023-02-28T05:15:51;14.13;;;4.25;;
73219;SDS011;61434;43.538;-5.688;2023-02-28T05:18:16;13.20;;;3.93;;
73219;SDS011;61434;43.538;-5.688;2023-02-28T05:20:41;12.63;;;4.00;;
73219;SDS011;61434;43.538;-5.688;2023-02-28T05:23:07;13.03;;;4.13;;
73219;SDS011;61434;43.538;-5.688;2023-02-28T05:25:33;15.25;;;3.90;;
73219;SDS011;61434;43.538;-5.688;2023-02-28T05:27:58;10.43;;;3.70;;
73219;SDS011;61434;43.538;-5.688;2023-02-28T05:30:24;15.07;;;3.50;;
73219;SDS011;61434;43.538;-5.688;2023-02-28T05:32:50;15.80;;;3.40;;
73219;SDS011;61434;43.538;-5.688;2023-02-28T05:35:15;12.07;;;4.40;;
73219;SDS011;61434;43.538;-5.688;2023-02-28T05:37:41;14.27;;;4.07;;
73219;SDS011;61434;43.538;-5.688;2023-02-28T05:40:06;11.60;;;4.23;;
73219;SDS011;61434;43.538;-5.688;2023-02-28T05:42:35;12.40;;;3.83;;
73219;SDS011;61434;43.538;-5.688;2023-02-28T05:45:00;14.00;;;3.83;;
73219;SDS011;61434;43.538;-5.688;2023-02-28T05:47:25;13.37;;;3.70;;
73219;SDS011;61434;43.538;-5.688;2023-02-28T05:49:51;14.60;;;4.67;;
73219;SDS011;61434;43.538;-5.688;2023-02-28T05:52:16;14.77;;;4.40;;
73219;SDS011;61434;43.538;-5.688;2023-02-28T05:54:41;10.20;;;3.57;;
73219;SDS011;61434;43.538;-5.688;2023-02-28T05:57:06;11.50;;;3.20;;
73219;SDS011;61434;43.538;-5.688;2023-02-28T05:59:32;11.70;;;2.97;;
73219;SDS011;61434;43.538;-5.688;2023-02-28T06:01:57;8.33;;;2.30;;
73219;SDS011;61434;43.538;-5.688;2023-02-28T06:04:22;7.43;;;2.30;;
73219;SDS011;61434;43.538;-5.688;2023-02-28T06:06:48;12.90;;;3.10;;
73219;SDS011;61434;43.538;-5.688;2023-02-28T06:09:14;10.95;;;3.67;;
73219;SDS011;61434;43.538;-5.688;2023-02-28T06:11:40;9.52;;;3.50;;
73219;SDS011;61434;43.538;-5.688;2023-02-28T06:14:05;10.57;;;2.73;;
73219;SDS011;61434;43.538;-5.688;2023-02-28T06:16:31;11.30;;;2.83;;
73219;SDS011;61434;43.538;-5.688;2023-02-28T06:18:58;6.57;;;2.63;;
73219;SDS011;61434;43.538;-5.688;2023-02-28T06:21:23;10.27;;;3.30;;
73219;SDS011;61434;43.538;-5.688;2023-02-28T06:23:49;11.50;;;3.17;;
73219;SDS011;61434;43.538;-5.688;2023-02-28T06:26:14;9.53;;;3.47;;
73219;SDS011;61434;43.538;-5.688;2023-02-28T06:28:39;9.33;;;3.17;;
73219;SDS011;61434;43.538;-5.688;2023-02-28T06:31:06;13.67;;;3.43;;
73219;SDS011;61434;43.538;-5.688;2023-02-28T06:33:31;12.27;;;3.45;;
73219;SDS011;61434;43.538;-5.688;2023-02-28T06:35:56;8.27;;;3.00;;
73219;SDS011;61434;43.538;-5.688;2023-02-28T06:38:22;10.27;;;3.20;;
73219;SDS011;61434;43.538;-5.688;2023-02-28T06:40:53;13.97;;;3.20;;
73219;SDS011;61434;43.538;-5.688;2023-02-28T06:43:19;11.73;;;3.50;;
73219;SDS011;61434;43.538;-5.688;2023-02-28T06:45:44;10.27;;;4.10;;
73219;SDS011;61434;43.538;-5.688;2023-02-28T06:48:09;10.73;;;2.70;;
73219;SDS011;61434;43.538;-5.688;2023-02-28T06:50:35;10.30;;;3.10;;
73219;SDS011;61434;43.538;-5.688;2023-02-28T06:53:01;8.77;;;2.90;;
73219;SDS011;61434;43.538;-5.688;2023-02-28T06:55:26;11.13;;;3.00;;
73219;SDS011;61434;43.538;-5.688;2023-02-28T06:57:51;12.40;;;2.80;;
73219;SDS011;61434;43.538;-5.688;2023-02-28T07:00:16;11.30;;;3.73;;
73219;SDS011;61434;43.538;-5.688;2023-02-28T07:02:42;10.13;;;3.93;;
73219;SDS011;61434;43.538;-5.688;2023-02-28T07:05:07;13.77;;;4.07;;
73219;SDS011;61434;43.538;-5.688;2023-02-28T07:07:33;11.75;;;3.83;;
73219;SDS011;61434;43.538;-5.688;2023-02-28T07:09:59;9.93;;;3.30;;
73219;SDS011;61434;43.538;-5.688;2023-02-28T07:12:24;8.50;;;2.90;;
73219;SDS011;61434;43.538;-5.688;2023-02-28T07:14:50;8.25;;;3.20;;
73219;SDS011;61434;43.538;-5.688;2023-02-28T07:17:15;11.70;;;3.30;;
73219;SDS011;61434;43.538;-5.688;2023-02-28T07:19:40;8.37;;;3.00;;
73219;SDS011;61434;43.538;-5.688;2023-02-28T07:22:06;12.20;;;3.00;;
73219;SDS011;61434;43.538;-5.688;2023-02-28T07:24:32;9.20;;;3.10;;
73219;SDS011;61434;43.538;-5.688;2023-02-28T07:26:57;9.53;;;2.90;;
73219;SDS011;61434;43.538;-5.688;2023-02-28T07:29:24;10.48;;;3.40;;
73219;SDS011;61434;43.538;-5.688;2023-02-28T07:31:49;10.13;;;3.07;;
73219;SDS011;61434;43.538;-5.688;2023-02-28T07:34:18;12.82;;;3.30;;
73219;SDS011;61434;43.538;-5.688;2023-02-28T07:36:43;14.93;;;3.80;;
73219;SDS011;61434;43.538;-5.688;2023-02-28T07:39:08;11.47;;;3.57;;
73219;SDS011;61434;43.538;-5.688;2023-02-28T07:41:34;9.13;;;3.08;;
73219;SDS011;61434;43.538;-5.688;2023-02-28T07:44:02;9.98;;;2.95;;
73219;SDS011;61434;43.538;-5.688;2023-02-28T07:46:28;13.30;;;3.80;;
73219;SDS011;61434;43.538;-5.688;2023-02-28T07:48:54;8.32;;;3.10;;
73219;SDS011;61434;43.538;-5.688;2023-02-28T07:51:24;9.00;;;3.03;;
73219;SDS011;61434;43.538;-5.688;2023-02-28T07:53:49;11.50;;;3.00;;
73219;SDS011;61434;43.538;-5.688;2023-02-28T07:56:14;10.73;;;2.70;;
73219;SDS011;61434;43.538;-5.688;2023-02-28T07:58:40;12.43;;;3.30;;
73219;SDS011;61434;43.538;-5.688;2023-02-28T08:01:09;11.27;;;2.60;;
73219;SDS011;61434;43.538;-5.688;2023-02-28T08:03:35;6.57;;;2.40;;
73219;SDS011;61434;43.538;-5.688;2023-02-28T08:06:01;12.63;;;3.80;;
73219;SDS011;61434;43.538;-5.688;2023-02-28T08:08:27;9.98;;;3.40;;
73219;SDS011;61434;43.538;-5.688;2023-02-28T08:10:57;11.40;;;4.23;;
73219;SDS011;61434;43.538;-5.688;2023-02-28T08:13:23;9.18;;;3.90;;
73219;SDS011;61434;43.538;-5.688;2023-02-28T08:15:49;12.30;;;4.10;;
73219;SDS011;61434;43.538;-5.688;2023-02-28T08:18:14;18.33;;;3.77;;
73219;SDS011;61434;43.538;-5.688;2023-02-28T08:20:39;15.20;;;5.17;;
73219;SDS011;61434;43.538;-5.688;2023-02-28T08:23:04;13.33;;;5.30;;
73219;SDS011;61434;43.538;-5.688;2023-02-28T08:25:30;13.50;;;4.73;;
73219;SDS011;61434;43.538;-5.688;2023-02-28T08:27:55;10.83;;;4.40;;
73219;SDS011;61434;43.538;-5.688;2023-02-28T08:30:20;15.07;;;6.10;;
73219;SDS011;61434;43.538;-5.688;2023-02-28T08:32:46;14.57;;;5.60;;
73219;SDS011;61434;43.538;-5.688;2023-02-28T08:35:11;13.73;;;5.10;;
73219;SDS011;61434;43.538;-5.688;2023-02-28T08:37:36;13.03;;;4.87;;
73219;SDS011;61434;43.538;-5.688;2023-02-28T08:40:02;15.27;;;5.07;;
73219;SDS011;61434;43.538;-5.688;2023-02-28T08:42:32;12.90;;;5.10;;
73219;SDS011;61434;43.538;-5.688;2023-02-28T08:45:01;11.18;;;4.68;;
73219;SDS011;61434;43.538;-5.688;2023-02-28T08:47:28;10.18;;;4.93;;
73219;SDS011;61434;43.538;-5.688;2023-02-28T08:49:54;13.63;;;4.80;;
73219;SDS011;61434;43.538;-5.688;2023-02-28T08:52:19;15.43;;;4.80;;
73219;SDS011;61434;43.538;-5.688;2023-02-28T08:54:44;15.50;;;5.20;;
73219;SDS011;61434;43.538;-5.688;2023-02-28T08:57:10;14.80;;;4.60;;
73219;SDS011;61434;43.538;-5.688;2023-02-28T08:59:35;13.83;;;4.80;;
73219;SDS011;61434;43.538;-5.688;2023-02-28T09:02:00;19.77;;;5.27;;
73219;SDS011;61434;43.538;-5.688;2023-02-28T09:04:26;15.53;;;4.17;;
73219;SDS011;61434;43.538;-5.688;2023-02-28T09:06:51;8.47;;;3.10;;
73219;SDS011;61434;43.538;-5.688;2023-02-28T09:09:16;10.33;;;2.80;;
73219;SDS011;61434;43.538;-5.688;2023-02-28T09:11:42;7.43;;;2.70;;
73219;SDS011;61434;43.538;-5.688;2023-02-28T09:14:07;7.27;;;2.63;;
73219;SDS011;61434;43.538;-5.688;2023-02-28T09:16:32;8.60;;;2.63;;
73219;SDS011;61434;43.538;-5.688;2023-02-28T09:18:58;9.43;;;2.95;;
73219;SDS011;61434;43.538;-5.688;2023-02-28T09:21:23;14.80;;;2.70;;
73219;SDS011;61434;43.538;-5.688;2023-02-28T09:23:49;7.63;;;2.57;;
73219;SDS011;61434;43.538;-5.688;2023-02-28T09:26:21;8.70;;;2.55;;
73219;SDS011;61434;43.538;-5.688;2023-02-28T09:28:47;6.72;;;2.58;;
73219;SDS011;61434;43.538;-5.688;2023-02-28T09:31:14;8.83;;;2.67;;
73219;SDS011;61434;43.538;-5.688;2023-02-28T09:33:39;6.78;;;2.50;;
73219;SDS011;61434;43.538;-5.688;2023-02-28T09:36:05;7.20;;;2.27;;
73219;SDS011;61434;43.538;-5.688;2023-02-28T09:38:30;7.00;;;2.60;;
73219;SDS011;61434;43.538;-5.688;2023-02-28T09:40:57;13.27;;;2.40;;
73219;SDS011;61434;43.538;-5.688;2023-02-28T09:43:24;8.40;;;2.15;;
73219;SDS011;61434;43.538;-5.688;2023-02-28T09:46:05;7.67;;;2.53;;
73219;SDS011;61434;43.538;-5.688;2023-02-28T09:48:34;8.45;;;2.15;;
73219;SDS011;61434;43.538;-5.688;2023-02-28T09:51:05;9.07;;;2.05;;
73219;SDS011;61434;43.538;-5.688;2023-02-28T09:53:36;10.57;;;2.72;;
73219;SDS011;61434;43.538;-5.688;2023-02-28T09:56:05;8.85;;;2.60;;
73219;SDS011;61434;43.538;-5.688;2023-02-28T09:58:34;9.00;;;2.17;;
73219;SDS011;61434;43.538;-5.688;2023-02-28T10:03:39;8.35;;;2.20;;
73219;SDS011;61434;43.538;-5.688;2023-02-28T10:06:11;11.50;;;2.40;;
73219;SDS011;61434;43.538;-5.688;2023-02-28T10:11:07;8.10;;;2.00;;
73219;SDS011;61434;43.538;-5.688;2023-02-28T10:13:56;8.05;;;2.45;;
73219;SDS011;61434;43.538;-5.688;2023-02-28T10:16:42;8.60;;;2.30;;
73219;SDS011;61434;43.538;-5.688;2023-02-28T10:21:56;13.68;;;3.05;;
73219;SDS011;61434;43.538;-5.688;2023-02-28T10:26:47;6.73;;;2.20;;
73219;SDS011;61434;43.538;-5.688;2023-02-28T10:29:13;8.85;;;2.83;;
73219;SDS011;61434;43.538;-5.688;2023-02-28T10:31:38;8.80;;;2.87;;
73219;SDS011;61434;43.538;-5.688;2023-02-28T10:34:04;12.23;;;3.17;;
73219;SDS011;61434;43.538;-5.688;2023-02-28T10:36:31;8.80;;;2.70;;
73219;SDS011;61434;43.538;-5.688;2023-02-28T10:38:57;12.07;;;2.83;;
73219;SDS011;61434;43.538;-5.688;2023-02-28T10:41:31;9.38;;;3.38;;
73219;SDS011;61434;43.538;-5.688;2023-02-28T10:44:22;5.83;;;2.60;;
73219;SDS011;61434;43.538;-5.688;2023-02-28T10:46:46;6.50;;;2.35;;
73219;SDS011;61434;43.538;-5.688;2023-02-28T10:49:26;7.20;;;2.72;;
73219;SDS011;61434;43.538;-5.688;2023-02-28T10:51:53;7.70;;;2.10;;
73219;SDS011;61434;43.538;-5.688;2023-02-28T10:54:19;7.82;;;2.50;;
73219;SDS011;61434;43.538;-5.688;2023-02-28T10:57:05;7.03;;;2.00;;
73219;SDS011;61434;43.538;-5.688;2023-02-28T10:59:31;6.45;;;2.40;;
73219;SDS011;61434;43.538;-5.688;2023-02-28T11:01:57;6.07;;;2.27;;
73219;SDS011;61434;43.538;-5.688;2023-02-28T11:06:48;6.70;;;2.40;;
73219;SDS011;61434;43.538;-5.688;2023-02-28T11:11:54;9.15;;;1.80;;
73219;SDS011;61434;43.538;-5.688;2023-02-28T11:14:27;7.30;;;2.20;;
73219;SDS011;61434;43.538;-5.688;2023-02-28T11:16:52;7.75;;;2.22;;
73219;SDS011;61434;43.538;-5.688;2023-02-28T11:19:20;7.78;;;2.40;;
73219;SDS011;61434;43.538;-5.688;2023-02-28T11:22:05;6.47;;;2.53;;
73219;SDS011;61434;43.538;-5.688;2023-02-28T11:24:39;6.47;;;1.90;;
73219;SDS011;61434;43.538;-5.688;2023-02-28T11:27:11;9.03;;;2.40;;
73219;SDS011;61434;43.538;-5.688;2023-02-28T11:29:46;16.05;;;2.00;;
73219;SDS011;61434;43.538;-5.688;2023-02-28T11:34:38;8.30;;;2.30;;
73219;SDS011;61434;43.538;-5.688;2023-02-28T11:37:04;9.38;;;2.30;;
73219;SDS011;61434;43.538;-5.688;2023-02-28T11:39:31;6.72;;;2.45;;
73219;SDS011;61434;43.538;-5.688;2023-02-28T11:46:56;8.63;;;2.40;;
73219;SDS011;61434;43.538;-5.688;2023-02-28T11:52:02;5.68;;;2.28;;
73219;SDS011;61434;43.538;-5.688;2023-02-28T11:59:57;7.27;;;2.43;;
73219;SDS011;61434;43.538;-5.688;2023-02-28T12:12:55;8.17;;;2.30;;
73219;SDS011;61434;43.538;-5.688;2023-02-28T12:20:59;10.13;;;2.13;;
73219;SDS011;61434;43.538;-5.688;2023-02-28T12:26:12;8.13;;;2.20;;
73219;SDS011;61434;43.538;-5.688;2023-02-28T12:28:41;6.57;;;2.27;;
73219;SDS011;61434;43.538;-5.688;2023-02-28T12:31:20;9.48;;;2.00;;
73219;SDS011;61434;43.538;-5.688;2023-02-28T12:33:51;6.50;;;2.58;;
73219;SDS011;61434;43.538;-5.688;2023-02-28T12:36:18;7.18;;;2.72;;
73219;SDS011;61434;43.538;-5.688;2023-02-28T12:41:44;7.97;;;2.33;;
73219;SDS011;61434;43.538;-5.688;2023-02-28T12:44:12;5.03;;;1.70;;
73219;SDS011;61434;43.538;-5.688;2023-02-28T12:46:41;6.80;;;2.30;;
73219;SDS011;61434;43.538;-5.688;2023-02-28T12:49:17;8.02;;;2.13;;
73219;SDS011;61434;43.538;-5.688;2023-02-28T12:51:44;8.02;;;2.42;;
73219;SDS011;61434;43.538;-5.688;2023-02-28T12:59:37;6.93;;;3.07;;
73219;SDS011;61434;43.538;-5.688;2023-02-28T13:04:47;9.93;;;2.45;;
73219;SDS011;61434;43.538;-5.688;2023-02-28T13:09:53;8.23;;;2.13;;
73219;SDS011;61434;43.538;-5.688;2023-02-28T13:12:19;7.13;;;2.58;;
73219;SDS011;61434;43.538;-5.688;2023-02-28T13:14:45;8.88;;;2.53;;
73219;SDS011;61434;43.538;-5.688;2023-02-28T13:17:12;6.80;;;1.90;;
73219;SDS011;61434;43.538;-5.688;2023-02-28T13:19:42;8.63;;;2.40;;
73219;SDS011;61434;43.538;-5.688;2023-02-28T13:22:19;13.90;;;2.67;;
73219;SDS011;61434;43.538;-5.688;2023-02-28T13:24:50;8.27;;;2.10;;
73219;SDS011;61434;43.538;-5.688;2023-02-28T13:29:52;10.57;;;2.73;;
73219;SDS011;61434;43.538;-5.688;2023-02-28T13:47:28;10.43;;;2.50;;
73219;SDS011;61434;43.538;-5.688;2023-02-28T13:49:53;11.55;;;3.13;;
73219;SDS011;61434;43.538;-5.688;2023-02-28T13:52:20;9.47;;;3.23;;
73219;SDS011;61434;43.538;-5.688;2023-02-28T14:07:29;7.37;;;2.80;;
73219;SDS011;61434;43.538;-5.688;2023-02-28T14:10:00;6.70;;;2.38;;
73219;SDS011;61434;43.538;-5.688;2023-02-28T14:17:56;8.47;;;2.60;;
73219;SDS011;61434;43.538;-5.688;2023-02-28T14:20:22;7.93;;;2.90;;
73219;SDS011;61434;43.538;-5.688;2023-02-28T14:22:55;8.90;;;3.00;;
73219;SDS011;61434;43.538;-5.688;2023-02-28T14:28:12;8.90;;;3.03;;
73219;SDS011;61434;43.538;-5.688;2023-02-28T14:30:52;8.73;;;2.75;;
73219;SDS011;61434;43.538;-5.688;2023-02-28T14:33:26;6.80;;;2.80;;
73219;SDS011;61434;43.538;-5.688;2023-02-28T14:38:24;10.13;;;2.50;;
73219;SDS011;61434;43.538;-5.688;2023-02-28T14:40:51;6.95;;;2.78;;
73219;SDS011;61434;43.538;-5.688;2023-02-28T14:43:21;7.13;;;2.50;;
73219;SDS011;61434;43.538;-5.688;2023-02-28T14:45:49;10.77;;;2.75;;
73219;SDS011;61434;43.538;-5.688;2023-02-28T14:48:15;8.25;;;2.90;;
73219;SDS011;61434;43.538;-5.688;2023-02-28T14:50:41;8.40;;;2.57;;
73219;SDS011;61434;43.538;-5.688;2023-02-28T14:53:15;10.07;;;2.35;;
73219;SDS011;61434;43.538;-5.688;2023-02-28T14:55:44;8.27;;;2.75;;
73219;SDS011;61434;43.538;-5.688;2023-02-28T14:58:18;6.70;;;2.30;;
73219;SDS011;61434;43.538;-5.688;2023-02-28T15:00:48;5.78;;;2.30;;
73219;SDS011;61434;43.538;-5.688;2023-02-28T15:03:30;7.43;;;2.40;;
73219;SDS011;61434;43.538;-5.688;2023-02-28T15:05:59;8.27;;;3.10;;
73219;SDS011;61434;43.538;-5.688;2023-02-28T15:08:26;6.93;;;2.22;;
73219;SDS011;61434;43.538;-5.688;2023-02-28T15:13:19;11.03;;;2.90;;
73219;SDS011;61434;43.538;-5.688;2023-02-28T15:15:50;7.67;;;2.40;;
73219;SDS011;61434;43.538;-5.688;2023-02-28T15:21:07;8.20;;;2.50;;
73219;SDS011;61434;43.538;-5.688;2023-02-28T15:23:34;7.82;;;2.63;;
73219;SDS011;61434;43.538;-5.688;2023-02-28T15:26:00;10.70;;;4.25;;
73219;SDS011;61434;43.538;-5.688;2023-02-28T15:28:26;9.63;;;3.93;;
73219;SDS011;61434;43.538;-5.688;2023-02-28T15:30:53;9.33;;;3.47;;
73219;SDS011;61434;43.538;-5.688;2023-02-28T15:33:28;8.00;;;2.42;;
73219;SDS011;61434;43.538;-5.688;2023-02-28T15:36:04;6.82;;;2.45;;
73219;SDS011;61434;43.538;-5.688;2023-02-28T15:38:33;7.05;;;2.30;;
73219;SDS011;61434;43.538;-5.688;2023-02-28T15:40:58;6.03;;;2.10;;
73219;SDS011;61434;43.538;-5.688;2023-02-28T15:48:31;6.00;;;2.13;;
73219;SDS011;61434;43.538;-5.688;2023-02-28T15:53:36;6.03;;;2.30;;
73219;SDS011;61434;43.538;-5.688;2023-02-28T15:56:04;8.60;;;2.42;;
73219;SDS011;61434;43.538;-5.688;2023-02-28T15:58:30;5.73;;;2.33;;
73219;SDS011;61434;43.538;-5.688;2023-02-28T16:01:29;5.80;;;2.67;;
73219;SDS011;61434;43.538;-5.688;2023-02-28T16:03:49;8.30;;;2.30;;
73219;SDS011;61434;43.538;-5.688;2023-02-28T16:08:43;6.13;;;2.38;;
73219;SDS011;61434;43.538;-5.688;2023-02-28T16:11:09;6.43;;;2.40;;
73219;SDS011;61434;43.538;-5.688;2023-02-28T16:13:35;8.88;;;3.15;;
73219;SDS011;61434;43.538;-5.688;2023-02-28T16:16:00;8.60;;;2.60;;
73219;SDS011;61434;43.538;-5.688;2023-02-28T16:18:26;8.13;;;2.42;;
73219;SDS011;61434;43.538;-5.688;2023-02-28T16:20:51;5.77;;;2.00;;
73219;SDS011;61434;43.538;-5.688;2023-02-28T16:23:17;6.93;;;2.33;;
73219;SDS011;61434;43.538;-5.688;2023-02-28T16:25:42;7.67;;;2.53;;
73219;SDS011;61434;43.538;-5.688;2023-02-28T16:28:23;7.47;;;2.10;;
73219;SDS011;61434;43.538;-5.688;2023-02-28T16:30:50;9.60;;;2.35;;
73219;SDS011;61434;43.538;-5.688;2023-02-28T16:33:16;6.27;;;2.07;;
73219;SDS011;61434;43.538;-5.688;2023-02-28T16:35:41;8.47;;;2.30;;
73219;SDS011;61434;43.538;-5.688;2023-02-28T16:38:07;8.07;;;2.73;;
73219;SDS011;61434;43.538;-5.688;2023-02-28T16:40:33;5.40;;;1.90;;
73219;SDS011;61434;43.538;-5.688;2023-02-28T16:42:59;8.10;;;2.35;;
73219;SDS011;61434;43.538;-5.688;2023-02-28T16:45:26;6.00;;;2.10;;
73219;SDS011;61434;43.538;-5.688;2023-02-28T16:47:51;7.40;;;2.20;;
73219;SDS011;61434;43.538;-5.688;2023-02-28T16:50:19;6.43;;;2.38;;
73219;SDS011;61434;43.538;-5.688;2023-02-28T16:52:45;6.78;;;2.45;;
73219;SDS011;61434;43.538;-5.688;2023-02-28T16:55:11;7.40;;;2.30;;
73219;SDS011;61434;43.538;-5.688;2023-02-28T16:57:36;7.40;;;2.20;;
73219;SDS011;61434;43.538;-5.688;2023-02-28T17:00:02;6.30;;;2.20;;
73219;SDS011;61434;43.538;-5.688;2023-02-28T17:02:28;6.60;;;2.20;;
73219;SDS011;61434;43.538;-5.688;2023-02-28T17:04:56;7.88;;;2.55;;
73219;SDS011;61434;43.538;-5.688;2023-02-28T17:07:21;7.53;;;2.80;;
73219;SDS011;61434;43.538;-5.688;2023-02-28T17:09:46;8.23;;;2.60;;
73219;SDS011;61434;43.538;-5.688;2023-02-28T17:12:12;6.53;;;2.60;;
73219;SDS011;61434;43.538;-5.688;2023-02-28T17:14:38;7.10;;;2.20;;
73219;SDS011;61434;43.538;-5.688;2023-02-28T17:17:06;6.03;;;2.80;;
73219;SDS011;61434;43.538;-5.688;2023-02-28T17:19:31;5.78;;;2.40;;
73219;SDS011;61434;43.538;-5.688;2023-02-28T17:21:58;6.10;;;2.25;;
73219;SDS011;61434;43.538;-5.688;2023-02-28T17:24:24;6.93;;;2.40;;
73219;SDS011;61434;43.538;-5.688;2023-02-28T17:26:49;6.83;;;2.70;;